Airfield :
LOGIN :

Register | Disclaimer

   EN    FR    IT 

 










Legend :    VFR   Marginal VFR   IFR   Intensive IFR   Very Intensive IFR
Visi :
Ceiling :
>= 8 km
>= 3000ft
5 to 8 km
1000 to 3000 ft
1500m to 5 km
500 to 1000 ft
800 to 1500m
200 to 500 ft
< 800m
< 200 ft
Symbols :   Thunderstorms  Fog  Heavy snow  Heavy precipitations  Wind > 20 kt
SIGMETs :     Misc.  Thunderstorms  Icing  Turbulence  Mountain Waves  Volcanic Ashes







- Airport Elevation : 6 ft
- IATA code : PSA


LIRP - Galileo Galilei Pisa

CURRENT METAR :
  • 221815Z 31003KT CAVOK 19/15 Q1022 NOSIG

EXPIRED METARs :
  • 221745Z 30003KT CAVOK 19/14 Q1022 NOSIG
  • 221715Z 30003KT CAVOK 20/14 Q1022 NOSIG
  • 221645Z 27005KT CAVOK 21/13 Q1021 NOSIG
  • 221615Z 26006KT CAVOK 22/13 Q1021 NOSIG
  • 221545Z 24007KT CAVOK 22/14 Q1021 NOSIG

TAF TAF LIRP
Valid from the 22 at 18:00 until the 23 at 18:00 UTC


221700Z 2218/2318 27010KT 9999 SCT030
BECMG 2220/2222 09003KT
BECMG 2302/2304 09010KT
TEMPO 2312/2318 25005KT FEW015CB
BECMG 2318/2320 09006KT
No reported NOTAMs for that airfield.



MET'MAP, your aeronautical weather chart ! - Copyright ORBIFLY December 2007 - Disclaimer

ORBIFLY MET'MAP TEAM :

Programming & Development : Alexandra Zaïnal
Concept & Development : Baudouin d'Aumeries
Co-Development & Prog : Marc-Olivier Méhu
Technical & hardware support : Manuel Goepfert

Contact : metmap@orbifly.com




SOURCES & CREDITS :

   NOAA